Time;durP1;ratioP1;P1;durP2;ratioP2;P2;SDS_P1;SDS_P2;PMS_P1;PMS_P2;Temp;Humidity;BMP_temperature;BMP_pressure;BME280_temperature;BME280_humidity;BME280_pressure;Samples;Min_cycle;Max_cycle;Signal;HPM_P1;HPM_P2
2023/12/30 00:02:23;;;;;;;153.90;59.33;;;;;;;;;;6246359;23;20008;-96
2023/12/30 00:04:49;;;;;;;155.93;60.92;;;;;;;;;;6246132;23;20081;-92
2023/12/30 00:07:16;;;;;;;182.15;65.75;;;;;;;;;;6246092;23;20011;-96
2023/12/30 00:09:42;;;;;;;177.95;65.43;;;;;;;;;;6246810;23;20479;-96
2023/12/30 00:12:09;;;;;;;183.43;65.38;;;;;;;;;;6247126;23;20000;-93
2023/12/30 00:14:36;;;;;;;143.60;59.38;;;;;;;;;;6247125;23;20008;-96
2023/12/30 00:17:02;;;;;;;160.38;64.30;;;;;;;;;;6246976;23;20008;-96
2023/12/30 00:19:29;;;;;;;193.18;68.15;;;;;;;;;;6266055;22;19996;-96
2023/12/30 00:21:55;;;;;;;203.48;71.13;;;;;;;;;;6272864;22;19996;-95
2023/12/30 00:24:21;;;;;;;209.35;73.65;;;;;;;;;;6266844;22;20060;-96
2023/12/30 00:26:48;;;;;;;161.85;62.92;;;;;;;;;;6246266;23;20062;-96
2023/12/30 00:29:14;;;;;;;187.65;69.22;;;;;;;;;;6245530;22;20023;-96
2023/12/30 00:31:40;;;;;;;167.70;64.43;;;;;;;;;;6220743;23;20018;-96
2023/12/30 00:34:06;;;;;;;172.90;58.70;;;;;;;;;;6220716;23;20013;-96
2023/12/30 00:36:41;;;;;;;149.85;58.90;;;;;;;;;;6220350;23;20039;-95
2023/12/30 00:39:10;;;;;;;157.48;60.72;;;;;;;;;;6220279;23;20074;-96
2023/12/30 00:41:36;;;;;;;159.43;62.67;;;;;;;;;;6220959;23;20020;-95
2023/12/30 00:44:02;;;;;;;189.38;66.35;;;;;;;;;;6220178;23;20421;-95
2023/12/30 00:46:28;;;;;;;191.00;64.63;;;;;;;;;;6221384;23;20004;-96
2023/12/30 00:48:55;;;;;;;145.35;56.85;;;;;;;;;;6222130;23;20311;-95
2023/12/30 00:51:21;;;;;;;148.40;55.50;;;;;;;;;;6222272;23;20011;-96
2023/12/30 00:53:47;;;;;;;105.88;46.45;;;;;;;;;;6222277;23;20491;-96
2023/12/30 00:56:13;;;;;;;132.88;52.92;;;;;;;;;;6222013;23;20058;-96
2023/12/30 00:58:39;;;;;;;120.07;48.67;;;;;;;;;;6222300;23;20004;-96
2023/12/30 01:01:07;;;;;;;138.57;51.92;;;;;;;;;;6221962;23;20388;-95
2023/12/30 01:03:34;;;;;;;102.97;45.88;;;;;;;;;;6222272;23;20004;-96
2023/12/30 01:06:00;;;;;;;72.85;37.58;;;;;;;;;;6222378;23;20008;-95
2023/12/30 01:08:26;;;;;;;138.82;51.42;;;;;;;;;;6222457;23;20497;-96
2023/12/30 01:10:52;;;;;;;151.05;55.33;;;;;;;;;;6222319;23;20020;-95
2023/12/30 01:13:19;;;;;;;142.23;53.58;;;;;;;;;;6222410;23;20004;-96
2023/12/30 01:15:48;;;;;;;115.30;48.35;;;;;;;;;;6221997;23;20000;-96
2023/12/30 01:18:14;;;;;;;123.25;48.88;;;;;;;;;;6222218;23;20034;-96
2023/12/30 01:20:40;;;;;;;97.35;43.53;;;;;;;;;;6221930;23;20034;-95
2023/12/30 01:23:06;;;;;;;130.63;49.25;;;;;;;;;;6222118;23;20008;-96
2023/12/30 01:25:32;;;;;;;138.98;52.28;;;;;;;;;;6222202;23;20012;-96
2023/12/30 01:27:59;;;;;;;103.82;47.38;;;;;;;;;;6221948;23;20015;-95
2023/12/30 01:30:25;;;;;;;120.78;48.55;;;;;;;;;;6240905;22;20094;-96
2023/12/30 01:32:51;;;;;;;73.65;37.28;;;;;;;;;;6252562;22;20007;-96
2023/12/30 01:35:17;;;;;;;126.70;49.15;;;;;;;;;;6252576;22;20000;-95
2023/12/30 01:37:44;;;;;;;125.30;49.20;;;;;;;;;;6252386;22;20003;-96
2023/12/30 01:40:14;;;;;;;137.20;52.05;;;;;;;;;;6252437;22;20027;-95
2023/12/30 01:42:41;;;;;;;159.48;54.63;;;;;;;;;;6252664;22;20011;-96
2023/12/30 01:45:08;;;;;;;124.50;49.17;;;;;;;;;;6252888;22;20069;-96
2023/12/30 01:47:35;;;;;;;139.38;51.88;;;;;;;;;;6252543;22;20025;-95
2023/12/30 01:50:01;;;;;;;89.00;42.25;;;;;;;;;;6252931;22;20372;-95
2023/12/30 01:52:28;;;;;;;117.32;48.00;;;;;;;;;;6253009;22;20004;-96
2023/12/30 01:54:54;;;;;;;126.95;49.88;;;;;;;;;;6253079;22;20008;-95
2023/12/30 01:57:20;;;;;;;133.10;49.92;;;;;;;;;;6253644;22;20421;-95
2023/12/30 01:59:48;;;;;;;113.95;46.13;;;;;;;;;;6303616;22;19998;-95
2023/12/30 02:02:14;;;;;;;139.70;49.75;;;;;;;;;;6279149;22;20011;-96
2023/12/30 02:04:41;;;;;;;83.57;39.35;;;;;;;;;;6253092;22;20082;-96
2023/12/30 02:07:07;;;;;;;111.10;43.38;;;;;;;;;;6252415;22;20029;-96
2023/12/30 02:09:33;;;;;;;114.45;46.92;;;;;;;;;;6252351;22;20035;-96
2023/12/30 02:11:59;;;;;;;137.63;52.13;;;;;;;;;;6252567;22;20011;-96
2023/12/30 02:14:29;;;;;;;82.03;41.17;;;;;;;;;;6252158;22;20015;-96
2023/12/30 02:16:56;;;;;;;105.65;43.83;;;;;;;;;;6252353;22;20004;-96
2023/12/30 02:19:23;;;;;;;145.00;54.38;;;;;;;;;;6252262;22;20004;-96
2023/12/30 02:21:49;;;;;;;106.78;44.83;;;;;;;;;;6252245;22;20019;-95
2023/12/30 02:24:22;;;;;;;111.10;45.10;;;;;;;;;;6252013;22;20011;-95
2023/12/30 02:26:48;;;;;;;115.05;45.28;;;;;;;;;;6226798;22;20011;-96
2023/12/30 02:29:14;;;;;;;118.50;45.58;;;;;;;;;;6247160;22;20015;-96
2023/12/30 02:31:47;;;;;;;92.22;41.42;;;;;;;;;;6221600;23;20036;-96
2023/12/30 02:34:17;;;;;;;126.13;46.85;;;;;;;;;;6221564;23;20008;-96
2023/12/30 02:36:44;;;;;;;105.40;44.55;;;;;;;;;;6221462;23;20426;-96
2023/12/30 02:39:11;;;;;;;114.03;45.85;;;;;;;;;;6221370;23;20011;-96
2023/12/30 02:41:37;;;;;;;104.32;42.42;;;;;;;;;;6220866;23;20066;-93
2023/12/30 02:44:03;;;;;;;119.47;45.28;;;;;;;;;;6221188;23;20091;-96
2023/12/30 02:46:30;;;;;;;121.88;44.95;;;;;;;;;;6221499;23;20008;-96
2023/12/30 02:49:04;;;;;;;89.72;39.50;;;;;;;;;;6221020;23;20012;-95
2023/12/30 02:51:30;;;;;;;112.32;43.65;;;;;;;;;;6220956;23;20418;-93
2023/12/30 02:53:56;;;;;;;86.80;39.50;;;;;;;;;;6221439;23;20000;-96
2023/12/30 02:56:23;;;;;;;118.15;46.30;;;;;;;;;;6221468;23;20426;-96
2023/12/30 02:58:53;;;;;;;108.25;42.88;;;;;;;;;;6221212;23;20000;-95
2023/12/30 03:01:19;;;;;;;121.40;45.88;;;;;;;;;;6221147;23;20438;-96
2023/12/30 03:03:45;;;;;;;94.97;43.13;;;;;;;;;;6196355;23;20038;-96
2023/12/30 03:06:15;;;;;;;115.97;45.88;;;;;;;;;;6221075;23;20019;-96
2023/12/30 03:08:41;;;;;;;108.50;45.03;;;;;;;;;;6221808;23;20000;-95
2023/12/30 03:11:09;;;;;;;144.88;51.72;;;;;;;;;;6221158;23;20491;-96
2023/12/30 03:13:35;;;;;;;84.90;39.30;;;;;;;;;;6221424;23;20027;-96
2023/12/30 03:16:02;;;;;;;90.05;40.35;;;;;;;;;;6221731;23;20004;-95
2023/12/30 03:18:28;;;;;;;180.10;56.15;;;;;;;;;;6221682;23;20011;-95
2023/12/30 03:20:54;;;;;;;172.57;53.75;;;;;;;;;;6221878;23;20004;-94
2023/12/30 03:23:20;;;;;;;148.82;51.40;;;;;;;;;;6222776;23;20509;-95
2023/12/30 03:25:46;;;;;;;354.50;70.85;;;;;;;;;;6221960;23;20050;-95
2023/12/30 03:28:13;;;;;;;96.15;42.30;;;;;;;;;;6222245;23;20031;-95
2023/12/30 03:30:39;;;;;;;92.30;40.78;;;;;;;;;;6243856;22;20019;-95
2023/12/30 03:33:05;;;;;;;329.75;68.22;;;;;;;;;;6253649;22;20010;-95
2023/12/30 03:35:35;;;;;;;264.70;63.30;;;;;;;;;;6253137;22;20090;-95
2023/12/30 03:38:01;;;;;;;240.00;61.67;;;;;;;;;;6263110;22;20000;-96
2023/12/30 03:40:27;;;;;;;227.52;62.13;;;;;;;;;;6278862;22;20000;-96
2023/12/30 03:42:54;;;;;;;172.52;55.42;;;;;;;;;;6266433;22;20062;-95
2023/12/30 03:45:20;;;;;;;194.35;54.25;;;;;;;;;;6253725;22;20088;-96
2023/12/30 03:47:47;;;;;;;109.57;44.05;;;;;;;;;;6253178;22;20011;-95
2023/12/30 03:50:13;;;;;;;126.07;43.58;;;;;;;;;;6254008;22;20083;-95
2023/12/30 03:52:40;;;;;;;153.48;49.03;;;;;;;;;;6254193;22;20003;-96
2023/12/30 03:55:06;;;;;;;371.15;73.88;;;;;;;;;;6254140;22;20009;-96
2023/12/30 03:57:32;;;;;;;491.23;82.85;;;;;;;;;;6252588;22;20004;-96
2023/12/30 03:59:59;;;;;;;96.88;42.40;;;;;;;;;;6253621;22;20011;-96
2023/12/30 04:02:25;;;;;;;249.45;61.78;;;;;;;;;;6253791;22;20045;-96
2023/12/30 04:04:54;;;;;;;135.57;49.65;;;;;;;;;;6255323;22;20010;-96
2023/12/30 04:07:20;;;;;;;128.82;44.28;;;;;;;;;;6253829;22;20003;-96
2023/12/30 04:09:46;;;;;;;408.17;74.55;;;;;;;;;;6253609;22;20083;-96
2023/12/30 04:12:21;;;;;;;90.65;43.40;;;;;;;;;;6253275;22;20006;-96
2023/12/30 04:14:54;;;;;;;302.45;65.65;;;;;;;;;;6253649;22;20007;-95
2023/12/30 04:17:22;;;;;;;191.85;50.13;;;;;;;;;;6253085;22;19995;-96
2023/12/30 04:19:49;;;;;;;204.77;50.92;;;;;;;;;;6253835;22;20004;-96
2023/12/30 04:22:15;;;;;;;303.60;64.88;;;;;;;;;;6255501;22;20019;-96
2023/12/30 04:24:41;;;;;;;194.50;57.42;;;;;;;;;;6256170;22;20054;-96
2023/12/30 04:27:08;;;;;;;83.95;43.47;;;;;;;;;;6255301;22;20059;-96
2023/12/30 04:29:34;;;;;;;75.80;40.05;;;;;;;;;;6255543;22;20026;-96
2023/12/30 04:32:01;;;;;;;193.57;58.42;;;;;;;;;;6282246;22;20007;-96
2023/12/30 04:34:27;;;;;;;311.45;67.38;;;;;;;;;;6255400;22;20046;-96
2023/12/30 04:36:54;;;;;;;398.48;73.70;;;;;;;;;;6256467;22;20007;-96
2023/12/30 04:39:20;;;;;;;430.73;78.20;;;;;;;;;;6255526;22;20031;-96
2023/12/30 04:41:47;;;;;;;600.92;90.05;;;;;;;;;;6282911;22;20007;-96
2023/12/30 04:44:14;;;;;;;88.57;42.65;;;;;;;;;;6255610;22;20003;-96
2023/12/30 04:46:41;;;;;;;95.57;42.35;;;;;;;;;;6283388;22;20456;-96
2023/12/30 04:49:07;;;;;;;379.33;72.43;;;;;;;;;;6255363;22;19996;-96
2023/12/30 04:51:33;;;;;;;337.20;65.38;;;;;;;;;;6255972;22;20015;-95
2023/12/30 04:54:00;;;;;;;186.63;51.72;;;;;;;;;;6255707;22;19999;-96
2023/12/30 04:56:26;;;;;;;458.90;78.35;;;;;;;;;;6257732;22;20004;-96
2023/12/30 04:58:53;;;;;;;297.92;70.72;;;;;;;;;;6284717;22;20004;-96
2023/12/30 05:01:19;;;;;;;99.57;44.30;;;;;;;;;;6256275;22;20007;-96
2023/12/30 05:03:45;;;;;;;213.55;60.20;;;;;;;;;;6255690;22;20091;-96
2023/12/30 05:06:19;;;;;;;99.68;43.45;;;;;;;;;;6255912;22;20007;-96
2023/12/30 05:08:55;;;;;;;90.15;40.85;;;;;;;;;;6255634;22;20000;-96
2023/12/30 05:11:24;;;;;;;466.38;76.55;;;;;;;;;;6256132;22;20018;-96
2023/12/30 05:13:50;;;;;;;296.27;64.63;;;;;;;;;;6255921;22;20011;-96
2023/12/30 05:16:17;;;;;;;232.88;62.92;;;;;;;;;;6255246;22;20034;-96
2023/12/30 05:18:43;;;;;;;171.77;53.63;;;;;;;;;;6269883;22;19992;-96
2023/12/30 05:21:14;;;;;;;84.78;41.75;;;;;;;;;;6280143;22;20063;-94
2023/12/30 05:23:41;;;;;;;85.47;42.47;;;;;;;;;;6235851;22;20030;-96
2023/12/30 05:26:07;;;;;;;233.57;57.53;;;;;;;;;;6255219;22;20008;-96
2023/12/30 05:28:33;;;;;;;292.20;66.80;;;;;;;;;;6254514;22;20004;-96
2023/12/30 05:31:05;;;;;;;475.42;79.70;;;;;;;;;;6254925;22;20046;-96
2023/12/30 05:33:33;;;;;;;305.20;68.18;;;;;;;;;;6231009;22;20426;-96
2023/12/30 05:36:00;;;;;;;360.88;72.68;;;;;;;;;;6255175;22;20010;-96
2023/12/30 05:38:27;;;;;;;376.75;73.25;;;;;;;;;;6280639;22;20000;-96
2023/12/30 05:40:53;;;;;;;283.55;59.17;;;;;;;;;;6254724;22;20012;-95
2023/12/30 05:43:19;;;;;;;236.30;63.50;;;;;;;;;;6228592;22;20061;-94
2023/12/30 05:45:49;;;;;;;471.30;76.93;;;;;;;;;;6281926;22;20003;-96
2023/12/30 05:48:15;;;;;;;354.70;70.65;;;;;;;;;;6255564;22;20004;-96
2023/12/30 05:50:43;;;;;;;200.35;49.63;;;;;;;;;;6230620;22;20012;-96
2023/12/30 05:53:10;;;;;;;162.23;51.22;;;;;;;;;;6256299;22;20054;-96
2023/12/30 05:55:37;;;;;;;225.32;55.53;;;;;;;;;;6255876;22;20010;-96
2023/12/30 05:58:07;;;;;;;72.47;34.05;;;;;;;;;;6256935;22;20015;-96
2023/12/30 06:00:34;;;;;;;99.55;43.38;;;;;;;;;;6230762;22;20345;-96
2023/12/30 06:03:06;;;;;;;134.00;45.05;;;;;;;;;;6230808;22;20012;-96
2023/12/30 06:05:33;;;;;;;287.60;62.17;;;;;;;;;;6253670;22;20448;-96
2023/12/30 06:08:00;;;;;;;136.55;47.60;;;;;;;;;;6255397;22;20003;-96
2023/12/30 06:10:27;;;;;;;316.38;63.40;;;;;;;;;;6256201;22;20008;-96
2023/12/30 06:12:54;;;;;;;395.20;69.20;;;;;;;;;;6276301;22;20128;-96
2023/12/30 06:15:22;;;;;;;135.45;46.05;;;;;;;;;;6231088;22;20042;-96
2023/12/30 06:18:00;;;;;;;64.55;34.00;;;;;;;;;;6257524;22;20008;-96
2023/12/30 06:20:31;;;;;;;172.88;50.97;;;;;;;;;;6232368;22;20126;-96
2023/12/30 06:22:57;;;;;;;155.70;49.53;;;;;;;;;;6256984;22;20026;-96
2023/12/30 06:25:27;;;;;;;254.05;59.30;;;;;;;;;;6284243;22;19999;-96
2023/12/30 06:27:53;;;;;;;178.32;51.88;;;;;;;;;;6232618;22;20341;-96
2023/12/30 06:30:25;;;;;;;72.18;37.67;;;;;;;;;;6266401;22;20043;-96
2023/12/30 06:32:54;;;;;;;167.77;52.47;;;;;;;;;;6251977;23;20004;-96
2023/12/30 06:35:21;;;;;;;202.82;57.60;;;;;;;;;;6227429;23;20014;-96
2023/12/30 06:37:48;;;;;;;102.18;43.97;;;;;;;;;;6252940;23;20109;-96
2023/12/30 06:40:15;;;;;;;67.53;36.72;;;;;;;;;;6252726;23;20012;-95
2023/12/30 06:42:45;;;;;;;64.30;34.85;;;;;;;;;;6254731;23;20001;-96
2023/12/30 06:45:24;;;;;;;;;;;;;;;;;;;;;
2023/12/30 06:47:53;;;;;;;78.38;38.63;;;;;;;;;;6230165;23;20048;-96
2023/12/30 06:50:22;;;;;;;212.32;56.10;;;;;;;;;;6226731;23;20000;-96
2023/12/30 06:52:52;;;;;;;83.25;41.33;;;;;;;;;;6202196;23;20087;-95
2023/12/30 06:55:20;;;;;;;69.38;37.95;;;;;;;;;;6252928;23;20000;-96
2023/12/30 06:58:04;;;;;;;160.30;54.38;;;;;;;;;;6246327;22;19988;-96
2023/12/30 07:00:30;;;;;;;157.48;50.90;;;;;;;;;;6248934;22;20056;-96
2023/12/30 07:02:57;;;;;;;202.38;58.30;;;;;;;;;;6230612;23;20004;-95
2023/12/30 07:05:24;;;;;;;194.73;59.80;;;;;;;;;;6221397;23;20024;-96
2023/12/30 07:07:54;;;;;;;173.75;57.50;;;;;;;;;;6226156;23;20028;-95
2023/12/30 07:10:20;;;;;;;220.43;61.78;;;;;;;;;;6225865;23;20023;-96
2023/12/30 07:12:50;;;;;;;196.70;58.33;;;;;;;;;;6229700;23;20028;-96
2023/12/30 07:15:25;;;;;;;151.15;52.22;;;;;;;;;;6231534;23;20050;-96
2023/12/30 07:17:52;;;;;;;93.38;43.78;;;;;;;;;;6206752;23;20240;-95
2023/12/30 07:20:35;;;;;;;145.13;51.47;;;;;;;;;;6224542;23;20008;-96
2023/12/30 07:23:13;;;;;;;273.00;62.38;;;;;;;;;;6230308;23;20009;-96
2023/12/30 07:25:51;;;;;;;215.27;78.82;;;;;;;;;;6255314;23;20020;-96
2023/12/30 07:31:18;;;;;;;117.50;46.80;;;;;;;;;;6166284;23;20017;-96
2023/12/30 07:36:52;;;;;;;193.40;58.25;;;;;;;;;;6193491;23;20032;-96
2023/12/30 07:39:53;;;;;;;217.57;60.20;;;;;;;;;;6195008;23;20009;-96
2023/12/30 07:42:22;;;;;;;67.95;35.65;;;;;;;;;;6052562;23;20071;-94
2023/12/30 07:44:52;;;;;;;106.40;44.53;;;;;;;;;;6049049;23;20007;-94
2023/12/30 07:52:59;;;;;;;179.30;56.38;;;;;;;;;;6271992;22;20035;-95
2023/12/30 07:55:25;;;;;;;90.38;43.63;;;;;;;;;;6259189;22;20008;-96
2023/12/30 08:00:36;;;;;;;67.13;36.83;;;;;;;;;;6290984;22;20043;-96
2023/12/30 08:03:14;;;;;;;90.72;44.47;;;;;;;;;;6289704;22;20019;-96
2023/12/30 08:05:41;;;;;;;109.35;44.67;;;;;;;;;;6280037;22;20015;-96
2023/12/30 08:10:43;;;;;;;60.78;35.30;;;;;;;;;;6242954;22;20028;-96
2023/12/30 08:18:33;;;;;;;77.13;35.85;;;;;;;;;;6248178;22;20020;-93
2023/12/30 08:20:59;;;;;;;60.28;33.25;;;;;;;;;;6248073;23;20457;-94
2023/12/30 08:23:45;;;;;;;253.63;54.00;;;;;;;;;;6247825;23;20004;-95
2023/12/30 08:26:47;;;;;;;63.03;34.38;;;;;;;;;;6258601;22;20000;-96
2023/12/30 08:29:15;;;;;;;91.00;34.83;;;;;;;;;;6256424;22;20083;-95
2023/12/30 08:34:36;;;;;;;70.13;35.83;;;;;;;;;;6255808;22;20119;-95
2023/12/30 08:37:08;;;;;;;109.57;41.70;;;;;;;;;;6249658;23;19997;-95
2023/12/30 08:39:35;;;;;;;85.22;39.75;;;;;;;;;;6268727;22;20012;-95
2023/12/30 08:42:01;;;;;;;104.53;45.38;;;;;;;;;;6277741;22;20002;-93
2023/12/30 08:44:27;;;;;;;69.18;37.22;;;;;;;;;;6261230;22;20011;-95
2023/12/30 08:46:54;;;;;;;82.50;40.53;;;;;;;;;;6251581;22;20374;-94
2023/12/30 08:49:20;;;;;;;100.53;46.72;;;;;;;;;;6250689;22;20000;-91
2023/12/30 08:51:50;;;;;;;157.15;64.50;;;;;;;;;;6251111;22;20008;-91
2023/12/30 08:54:29;;;;;;;105.88;46.63;;;;;;;;;;6253050;22;20008;-93
2023/12/30 08:56:58;;;;;;;138.75;49.05;;;;;;;;;;6255812;22;20019;-94
2023/12/30 08:59:31;;;;;;;64.25;37.15;;;;;;;;;;6259401;22;20010;-94
2023/12/30 09:01:57;;;;;;;61.45;33.60;;;;;;;;;;6232578;22;20015;-95
2023/12/30 09:04:24;;;;;;;80.00;39.55;;;;;;;;;;6253368;22;20003;-93
2023/12/30 09:06:52;;;;;;;74.45;39.88;;;;;;;;;;6252505;22;20039;-95
2023/12/30 09:09:19;;;;;;;61.03;35.85;;;;;;;;;;6253797;22;20053;-95
2023/12/30 09:11:45;;;;;;;58.72;34.50;;;;;;;;;;6254950;22;20053;-93
2023/12/30 09:14:11;;;;;;;92.28;39.15;;;;;;;;;;6253457;22;20087;-95
2023/12/30 09:16:37;;;;;;;60.20;34.80;;;;;;;;;;6254347;22;19996;-95
2023/12/30 09:19:04;;;;;;;55.97;33.50;;;;;;;;;;6254489;22;20010;-95
2023/12/30 09:21:31;;;;;;;63.47;35.78;;;;;;;;;;6258700;22;20075;-96
2023/12/30 09:23:57;;;;;;;55.90;34.03;;;;;;;;;;6257047;22;20050;-95
2023/12/30 09:26:25;;;;;;;58.50;33.35;;;;;;;;;;6284016;22;20042;-96
2023/12/30 09:28:53;;;;;;;56.72;35.40;;;;;;;;;;6253030;22;20010;-96
2023/12/30 09:31:27;;;;;;;46.95;30.75;;;;;;;;;;6253265;22;20111;-95
2023/12/30 09:33:53;;;;;;;45.95;29.73;;;;;;;;;;6253238;22;20019;-96
2023/12/30 09:36:22;;;;;;;47.47;30.63;;;;;;;;;;6253145;22;20012;-93
2023/12/30 09:38:49;;;;;;;47.72;32.38;;;;;;;;;;6254203;22;20421;-93
2023/12/30 09:41:24;;;;;;;56.90;37.38;;;;;;;;;;6279052;22;20097;-96
2023/12/30 09:43:50;;;;;;;48.33;34.67;;;;;;;;;;6254156;22;20031;-96
2023/12/30 09:49:06;;;;;;;38.38;29.55;;;;;;;;;;6240702;22;20024;-95
2023/12/30 09:52:02;;;;;;;39.88;31.02;;;;;;;;;;6250275;23;20006;-96
2023/12/30 09:54:38;;;;;;;34.13;29.48;;;;;;;;;;6247528;23;20099;-96
2023/12/30 09:57:07;;;;;;;34.97;30.63;;;;;;;;;;6245004;23;20087;-95
2023/12/30 09:59:36;;;;;;;32.30;28.00;;;;;;;;;;6248706;23;20141;-96
2023/12/30 10:02:06;;;;;;;30.65;27.35;;;;;;;;;;6247533;23;20016;-95
2023/12/30 10:04:41;;;;;;;34.22;30.33;;;;;;;;;;6247757;23;20005;-92
2023/12/30 10:07:11;;;;;;;30.55;27.27;;;;;;;;;;6248239;23;20004;-96
2023/12/30 10:09:41;;;;;;;34.25;30.77;;;;;;;;;;6246635;23;20000;-94
2023/12/30 10:12:10;;;;;;;34.47;30.92;;;;;;;;;;6247841;23;20006;-92
2023/12/30 10:14:38;;;;;;;33.85;30.40;;;;;;;;;;6248847;23;20019;-95
2023/12/30 10:17:04;;;;;;;34.17;30.67;;;;;;;;;;6251104;23;20004;-95
2023/12/30 10:19:34;;;;;;;34.08;30.58;;;;;;;;;;6249946;23;20008;-96
2023/12/30 10:22:00;;;;;;;35.42;31.83;;;;;;;;;;6260951;22;20028;-94
2023/12/30 10:24:26;;;;;;;28.00;25.27;;;;;;;;;;6273911;22;19992;-94
2023/12/30 10:27:03;;;;;;;13.38;12.07;;;;;;;;;;6260242;22;20015;-92
2023/12/30 10:29:32;;;;;;;11.38;8.32;;;;;;;;;;6246797;23;20014;-93
2023/12/30 10:32:03;;;;;;;7.60;6.43;;;;;;;;;;6246353;23;20042;-93
2023/12/30 10:34:31;;;;;;;7.90;5.95;;;;;;;;;;6246661;23;20141;-94
2023/12/30 10:37:04;;;;;;;7.18;6.35;;;;;;;;;;6248177;23;20008;-96
2023/12/30 10:39:30;;;;;;;6.40;5.30;;;;;;;;;;6246964;23;20410;-95
2023/12/30 10:41:57;;;;;;;5.28;4.78;;;;;;;;;;6246671;23;20019;-94
2023/12/30 10:44:23;;;;;;;5.30;4.30;;;;;;;;;;6246791;23;20003;-93
2023/12/30 10:46:53;;;;;;;5.82;4.68;;;;;;;;;;6246641;23;20019;-93
2023/12/30 10:49:22;;;;;;;5.45;4.43;;;;;;;;;;6246347;23;20103;-94
2023/12/30 10:51:51;;;;;;;3.58;2.90;;;;;;;;;;6246755;23;20004;-94
2023/12/30 10:54:22;;;;;;;4.43;3.60;;;;;;;;;;6246192;23;20004;-94
2023/12/30 10:56:55;;;;;;;6.07;4.45;;;;;;;;;;6247546;23;20000;-94
2023/12/30 10:59:25;;;;;;;3.78;3.38;;;;;;;;;;6247673;23;20112;-93
2023/12/30 11:01:51;;;;;;;5.72;4.43;;;;;;;;;;6247788;23;20012;-95
2023/12/30 11:04:21;;;;;;;6.78;5.30;;;;;;;;;;6223362;23;20008;-93
2023/12/30 11:06:53;;;;;;;9.95;8.68;;;;;;;;;;6245409;23;20015;-95
2023/12/30 11:09:29;;;;;;;8.75;7.80;;;;;;;;;;6246286;23;20008;-94
2023/12/30 11:12:02;;;;;;;3.85;3.30;;;;;;;;;;6246400;23;20008;-94
2023/12/30 11:14:29;;;;;;;7.90;7.10;;;;;;;;;;6247086;23;20056;-94
2023/12/30 11:17:01;;;;;;;5.88;5.30;;;;;;;;;;6247324;23;20496;-94
2023/12/30 11:19:28;;;;;;;5.28;4.10;;;;;;;;;;6246012;23;20004;-94
2023/12/30 11:22:01;;;;;;;3.90;3.05;;;;;;;;;;6246528;23;20039;-95
2023/12/30 11:24:31;;;;;;;6.53;4.72;;;;;;;;;;6247079;23;20478;-93
2023/12/30 11:27:00;;;;;;;6.82;4.40;;;;;;;;;;6245929;23;20011;-94
2023/12/30 11:29:30;;;;;;;3.70;3.30;;;;;;;;;;6246302;23;20004;-93
2023/12/30 11:32:00;;;;;;;2.90;2.60;;;;;;;;;;6247908;23;20000;-93
2023/12/30 11:34:29;;;;;;;4.00;3.63;;;;;;;;;;6246462;23;20008;-93
2023/12/30 11:36:58;;;;;;;3.15;2.90;;;;;;;;;;6246154;23;20004;-94
2023/12/30 11:39:27;;;;;;;3.60;3.30;;;;;;;;;;6246028;23;20437;-94
2023/12/30 11:42:00;;;;;;;3.85;3.45;;;;;;;;;;6245958;23;20441;-94
2023/12/30 11:44:27;;;;;;;5.13;3.45;;;;;;;;;;6247976;23;20091;-94
2023/12/30 11:46:54;;;;;;;3.58;3.05;;;;;;;;;;6247854;23;20008;-91
2023/12/30 11:49:24;;;;;;;6.88;4.20;;;;;;;;;;6248360;23;20019;-95
2023/12/30 11:51:51;;;;;;;3.60;3.30;;;;;;;;;;6246723;23;20011;-94
2023/12/30 11:54:17;;;;;;;4.47;4.03;;;;;;;;;;6221492;23;20375;-93
2023/12/30 11:57:14;;;;;;;10.30;6.88;;;;;;;;;;6247196;23;20008;-93
2023/12/30 12:00:13;;;;;;;;;;;;;;;;;;;;;
2023/12/30 12:02:39;;;;;;;5.70;5.25;;;;;;;;;;6248128;23;20095;-95
2023/12/30 12:05:09;;;;;;;5.03;4.45;;;;;;;;;;6247244;23;20000;-94
2023/12/30 12:07:54;;;;;;;4.20;3.90;;;;;;;;;;6258113;22;20009;-92
2023/12/30 12:10:20;;;;;;;3.30;3.00;;;;;;;;;;6272980;22;20008;-93
2023/12/30 12:12:49;;;;;;;3.83;3.10;;;;;;;;;;6260482;22;20012;-90
2023/12/30 12:15:50;;;;;;;3.65;3.35;;;;;;;;;;6245372;23;20004;-93
2023/12/30 12:18:23;;;;;;;3.50;3.03;;;;;;;;;;6246088;23;20450;-95
2023/12/30 12:20:52;;;;;;;7.82;4.93;;;;;;;;;;6245852;23;20058;-93
2023/12/30 12:23:30;;;;;;;10.02;7.03;;;;;;;;;;6245745;23;20005;-90
2023/12/30 12:26:07;;;;;;;7.80;7.20;;;;;;;;;;6245967;23;20698;-91
2023/12/30 12:28:34;;;;;;;6.22;5.72;;;;;;;;;;6245259;23;20337;-94
2023/12/30 12:31:05;;;;;;;5.28;4.78;;;;;;;;;;6245932;23;20091;-92
2023/12/30 12:36:31;;;;;;;5.05;4.65;;;;;;;;;;6221411;23;20019;-93
2023/12/30 12:38:57;;;;;;;7.35;6.65;;;;;;;;;;6245627;23;20004;-92
2023/12/30 12:41:44;;;;;;;6.88;6.28;;;;;;;;;;6246605;23;20012;-94
2023/12/30 12:44:10;;;;;;;5.68;5.07;;;;;;;;;;6248135;23;20004;-93
2023/12/30 12:46:39;;;;;;;5.30;4.80;;;;;;;;;;6247739;23;20004;-93
2023/12/30 12:49:05;;;;;;;6.05;5.63;;;;;;;;;;6246688;23;20047;-92
2023/12/30 12:51:38;;;;;;;4.85;4.47;;;;;;;;;;6247564;23;20000;-92
2023/12/30 12:54:05;;;;;;;7.03;6.53;;;;;;;;;;6252474;22;20510;-96
2023/12/30 12:56:37;;;;;;;8.43;7.82;;;;;;;;;;6252967;22;20000;-93
2023/12/30 12:59:03;;;;;;;10.70;9.90;;;;;;;;;;6252814;22;20491;-96
2023/12/30 13:01:29;;;;;;;14.60;13.40;;;;;;;;;;6254357;22;20349;-96
2023/12/30 13:03:58;;;;;;;8.65;7.50;;;;;;;;;;6253318;22;20427;-95
2023/12/30 13:06:24;;;;;;;5.00;4.60;;;;;;;;;;6252677;22;20060;-93
2023/12/30 13:08:58;;;;;;;6.20;5.60;;;;;;;;;;6254106;22;20007;-95
2023/12/30 13:11:31;;;;;;;6.15;5.75;;;;;;;;;;6253060;22;20003;-96
2023/12/30 13:14:09;;;;;;;6.53;6.03;;;;;;;;;;6280309;22;20004;-94
2023/12/30 13:16:35;;;;;;;4.78;4.45;;;;;;;;;;6217307;22;20091;-96
2023/12/30 13:19:05;;;;;;;4.15;3.75;;;;;;;;;;6252115;22;20083;-94
2023/12/30 13:21:31;;;;;;;5.72;5.07;;;;;;;;;;6253069;22;20015;-95
2023/12/30 13:24:01;;;;;;;5.82;5.43;;;;;;;;;;6252466;22;20385;-94
2023/12/30 13:26:35;;;;;;;6.63;6.15;;;;;;;;;;6278896;22;20043;-95
2023/12/30 13:29:04;;;;;;;7.10;6.47;;;;;;;;;;6255266;22;20004;-96
2023/12/30 13:31:33;;;;;;;7.72;7.22;;;;;;;;;;6253049;22;20007;-96
2023/12/30 13:33:59;;;;;;;7.65;7.15;;;;;;;;;;6254117;22;19999;-94
2023/12/30 13:36:25;;;;;;;8.15;7.50;;;;;;;;;;6253227;22;20004;-96
2023/12/30 13:39:06;;;;;;;5.78;5.38;;;;;;;;;;6253767;22;20413;-96
2023/12/30 13:41:36;;;;;;;5.13;4.80;;;;;;;;;;6253984;22;20022;-96
2023/12/30 13:44:05;;;;;;;7.70;7.20;;;;;;;;;;6255899;22;20000;-96
2023/12/30 13:52:00;;;;;;;7.20;6.65;;;;;;;;;;6289300;22;20003;-96
2023/12/30 13:54:26;;;;;;;7.15;6.70;;;;;;;;;;6279388;22;19987;-93
2023/12/30 13:59:59;;;;;;;5.90;5.40;;;;;;;;;;6282273;22;20063;-95
2023/12/30 14:02:37;;;;;;;5.63;3.70;;;;;;;;;;6252747;22;20110;-95
2023/12/30 14:05:28;;;;;;;6.13;5.72;;;;;;;;;;6232199;22;20015;-94
2023/12/30 14:07:56;;;;;;;7.30;6.80;;;;;;;;;;6255673;22;20421;-96
2023/12/30 14:10:26;;;;;;;5.75;5.35;;;;;;;;;;6253496;22;20137;-96
2023/12/30 14:13:00;;;;;;;9.60;7.95;;;;;;;;;;6255734;22;20014;-95
2023/12/30 14:15:29;;;;;;;21.98;13.45;;;;;;;;;;6253733;22;20007;-96
2023/12/30 14:17:56;;;;;;;18.83;12.15;;;;;;;;;;6252696;22;20310;-96
2023/12/30 14:20:31;;;;;;;17.60;12.40;;;;;;;;;;6251900;22;20090;-93
2023/12/30 14:22:58;;;;;;;21.58;16.30;;;;;;;;;;6252575;22;20016;-95
2023/12/30 14:25:25;;;;;;;11.93;8.60;;;;;;;;;;6251950;22;20058;-96
2023/12/30 14:28:05;;;;;;;9.63;6.20;;;;;;;;;;6252472;22;20008;-96
2023/12/30 14:30:34;;;;;;;5.38;4.97;;;;;;;;;;6253523;22;20410;-94
2023/12/30 14:33:01;;;;;;;5.75;5.35;;;;;;;;;;6253318;22;20015;-95
2023/12/30 14:35:30;;;;;;;4.20;3.80;;;;;;;;;;6254259;22;20011;-96
2023/12/30 14:37:56;;;;;;;3.47;3.17;;;;;;;;;;6252971;22;20008;-95
2023/12/30 14:40:22;;;;;;;5.22;4.47;;;;;;;;;;6253992;22;20004;-96
2023/12/30 14:42:50;;;;;;;3.58;2.92;;;;;;;;;;6253911;22;20041;-96
2023/12/30 14:45:19;;;;;;;3.67;3.20;;;;;;;;;;6252630;22;20421;-96
2023/12/30 14:47:46;;;;;;;3.42;3.03;;;;;;;;;;6253586;22;20007;-95
2023/12/30 14:50:12;;;;;;;6.65;4.50;;;;;;;;;;6229220;22;20000;-94
2023/12/30 14:52:42;;;;;;;9.25;4.20;;;;;;;;;;6252712;22;20003;-95
2023/12/30 14:55:16;;;;;;;5.20;3.47;;;;;;;;;;6253388;22;20003;-94
2023/12/30 14:57:43;;;;;;;3.67;3.00;;;;;;;;;;6250348;22;20061;-95
2023/12/30 15:00:16;;;;;;;3.17;2.33;;;;;;;;;;6251977;22;20082;-95
2023/12/30 15:02:42;;;;;;;;;;;;;;;;;;6252737;22;20019;-94
2023/12/30 15:05:13;;;;;;;3.92;2.72;;;;;;;;;;6252179;22;19980;-94
2023/12/30 15:07:43;;;;;;;2.97;2.13;;;;;;;;;;6215302;23;20060;-94
2023/12/30 15:10:14;;;;;;;2.58;1.83;;;;;;;;;;6191731;23;20011;-94
2023/12/30 15:12:42;;;;;;;4.80;2.72;;;;;;;;;;6193029;23;20004;-94